createdAt,value
2022-11-06T00:00:01.098Z,6.7
2022-11-06T00:01:01.106Z,6.7
2022-11-06T00:02:01.234Z,6.7
2022-11-06T00:03:01.554Z,6.7
2022-11-06T00:04:00.918Z,6.7
2022-11-06T00:05:00.816Z,6.8
2022-11-06T00:06:00.541Z,6.7
2022-11-06T00:07:00.239Z,6.7
2022-11-06T00:07:59.949Z,6.8
2022-11-06T00:08:59.580Z,6.8
2022-11-06T00:10:01.736Z,6.7
2022-11-06T00:11:01.749Z,6.7
2022-11-06T00:12:01.318Z,6.7
2022-11-06T00:13:01.936Z,6.7
2022-11-06T00:14:01.206Z,6.7
2022-11-06T00:15:01.090Z,6.7
2022-11-06T00:16:01.132Z,6.7
2022-11-06T00:17:01.100Z,6.6
2022-11-06T00:18:01.121Z,6.6
2022-11-06T00:19:01.130Z,6.5
2022-11-06T00:20:01.123Z,6.5
2022-11-06T00:21:01.168Z,6.5
2022-11-06T00:22:02.151Z,6.5
2022-11-06T00:23:01.061Z,6.6
2022-11-06T00:24:01.099Z,6.6
2022-11-06T00:25:01.058Z,6.6
2022-11-06T00:26:01.769Z,6.6
2022-11-06T00:27:01.734Z,6.6
2022-11-06T00:28:01.759Z,6.6
2022-11-06T00:29:02.058Z,6.6
2022-11-06T00:30:02.015Z,6.6
2022-11-06T00:31:01.425Z,6.6
2022-11-06T00:32:01.435Z,6.6
2022-11-06T00:33:01.471Z,6.6
2022-11-06T00:34:01.525Z,6.6
2022-11-06T00:35:02.544Z,6.6
2022-11-06T00:36:01.128Z,6.6
2022-11-06T00:37:01.149Z,6.6
2022-11-06T00:38:01.144Z,6.6
2022-11-06T00:39:01.212Z,6.6
2022-11-06T00:40:01.162Z,6.6
2022-11-06T00:41:01.455Z,6.6
2022-11-06T00:42:01.438Z,6.6
2022-11-06T00:43:04.133Z,6.6
2022-11-06T00:44:01.109Z,6.5
2022-11-06T00:45:01.087Z,6.5
2022-11-06T00:46:01.087Z,6.5
2022-11-06T00:47:01.100Z,6.5
2022-11-06T00:48:01.091Z,6.5
2022-11-06T00:49:01.119Z,6.5
2022-11-06T00:50:01.156Z,6.5
2022-11-06T00:51:01.806Z,6.5
2022-11-06T00:52:01.171Z,6.5
2022-11-06T00:53:01.142Z,6.5
2022-11-06T00:54:01.160Z,6.5
2022-11-06T00:55:01.154Z,6.5
2022-11-06T00:56:01.172Z,6.4
2022-11-06T00:57:01.065Z,6.4
2022-11-06T00:58:01.230Z,6.3
2022-11-06T00:59:01.230Z,6.4
2022-11-06T01:00:01.535Z,6.3
2022-11-06T01:01:02.615Z,6.4
2022-11-06T01:02:01.216Z,6.4
2022-11-06T01:03:01.510Z,6.5
2022-11-06T01:04:02.029Z,6.5
2022-11-06T01:05:01.775Z,6.5
2022-11-06T01:06:06.332Z,6.5
2022-11-06T01:07:02.082Z,6.5
2022-11-06T01:08:01.128Z,6.5
2022-11-06T01:09:01.180Z,6.4
2022-11-06T01:10:01.193Z,6.4
2022-11-06T01:11:09.818Z,6.4
2022-11-06T01:12:16.915Z,6.3
2022-11-06T01:13:01.573Z,6.3
2022-11-06T01:14:01.461Z,6.3
2022-11-06T01:15:01.084Z,6.3
2022-11-06T01:16:13.403Z,6.3
2022-11-06T01:17:01.106Z,6.3
2022-11-06T01:18:01.085Z,6.3
2022-11-06T01:19:01.096Z,6.3
2022-11-06T01:20:01.109Z,6.3
2022-11-06T01:21:15.546Z,6.2
2022-11-06T01:22:01.406Z,6.2
2022-11-06T01:23:04.184Z,6.2
2022-11-06T01:24:01.156Z,6.1
2022-11-06T01:25:01.241Z,6.1
2022-11-06T01:26:02.167Z,6.1
2022-11-06T01:28:01.154Z,6.1
2022-11-06T01:29:01.165Z,6.1
2022-11-06T01:30:01.158Z,6.1
2022-11-06T01:31:01.101Z,6.1
2022-11-06T01:32:01.235Z,6.1
2022-11-06T01:33:01.071Z,6.1
2022-11-06T01:34:01.087Z,6.1
2022-11-06T01:35:01.149Z,6.1
2022-11-06T01:36:01.111Z,6
2022-11-06T01:37:01.108Z,6
2022-11-06T01:38:01.238Z,6
2022-11-06T01:39:01.123Z,6
2022-11-06T01:40:01.121Z,6.1
2022-11-06T01:41:01.196Z,6.1
2022-11-06T01:42:01.489Z,6
2022-11-06T01:43:01.054Z,6.1
2022-11-06T01:44:01.172Z,6.1
2022-11-06T01:45:01.161Z,6.1
2022-11-06T01:46:01.793Z,6.1
2022-11-06T01:47:01.069Z,6.1
2022-11-06T01:48:01.107Z,6.1
2022-11-06T01:49:01.148Z,6.1
2022-11-06T01:50:01.483Z,6.1
2022-11-06T01:51:01.217Z,6.1
2022-11-06T01:52:01.218Z,6.1
2022-11-06T01:53:01.147Z,6.1
2022-11-06T01:54:01.139Z,6.1
2022-11-06T01:55:01.221Z,6
2022-11-06T01:56:02.481Z,6
2022-11-06T01:57:01.032Z,6
2022-11-06T01:58:01.557Z,6
2022-11-06T01:59:01.195Z,6
2022-11-06T02:00:03.881Z,6
2022-11-06T02:01:01.266Z,6
2022-11-06T02:02:01.367Z,6
2022-11-06T02:03:01.188Z,6
2022-11-06T02:04:01.994Z,6
2022-11-06T02:05:02.621Z,6
2022-11-06T02:06:01.454Z,6
2022-11-06T02:07:01.104Z,6
2022-11-06T02:08:01.139Z,6.1
2022-11-06T02:09:01.070Z,6.1
2022-11-06T02:10:01.129Z,6.1
2022-11-06T02:11:01.897Z,6.1
2022-11-06T02:12:01.043Z,6.1
2022-11-06T02:13:02.149Z,6.1
2022-11-06T02:14:01.061Z,6.1
2022-11-06T02:15:01.475Z,6.1
2022-11-06T02:16:01.180Z,6
2022-11-06T02:17:01.163Z,6
2022-11-06T02:18:01.417Z,6
2022-11-06T02:19:01.992Z,6
2022-11-06T02:20:01.126Z,5.9
2022-11-06T02:21:01.090Z,5.9
2022-11-06T02:22:01.081Z,6
2022-11-06T02:23:01.106Z,6
2022-11-06T02:24:01.841Z,6
2022-11-06T02:25:01.103Z,6
2022-11-06T02:26:01.126Z,6
2022-11-06T02:27:03.295Z,6
2022-11-06T02:28:01.132Z,6
2022-11-06T02:29:01.124Z,6
2022-11-06T02:30:01.143Z,6
2022-11-06T02:31:01.856Z,6
2022-11-06T02:32:01.454Z,6
2022-11-06T02:33:01.097Z,6
2022-11-06T02:34:01.562Z,6
2022-11-06T02:35:01.066Z,5.9
2022-11-06T02:36:01.236Z,5.9
2022-11-06T02:37:03.750Z,5.9
2022-11-06T02:38:02.825Z,5.9
2022-11-06T02:39:01.808Z,5.9
2022-11-06T02:40:01.765Z,5.9
2022-11-06T02:41:01.394Z,5.9
2022-11-06T02:42:05.831Z,6
2022-11-06T02:43:02.541Z,6
2022-11-06T02:44:02.366Z,6
2022-11-06T02:45:01.143Z,6
2022-11-06T02:46:01.141Z,6
2022-11-06T02:47:09.792Z,6
2022-11-06T02:48:01.157Z,6
2022-11-06T02:49:01.088Z,6
2022-11-06T02:50:01.084Z,6
2022-11-06T02:51:01.114Z,6
2022-11-06T02:52:11.617Z,6
2022-11-06T02:53:01.070Z,6
2022-11-06T02:54:01.131Z,6
2022-11-06T02:55:01.095Z,6
2022-11-06T02:56:01.081Z,6
2022-11-06T02:57:15.295Z,6
2022-11-06T02:58:01.504Z,6
2022-11-06T02:59:01.099Z,6
2022-11-06T03:00:01.053Z,6
2022-11-06T03:01:01.524Z,6
2022-11-06T03:02:16.895Z,6
2022-11-06T03:03:01.686Z,6
2022-11-06T03:04:01.167Z,6
2022-11-06T03:05:01.865Z,6
2022-11-06T03:06:01.168Z,6
2022-11-06T03:07:01.493Z,5.9
2022-11-06T03:08:00.901Z,5.9
2022-11-06T03:09:01.097Z,5.8
2022-11-06T03:10:02.010Z,5.8
2022-11-06T03:11:01.094Z,5.8
2022-11-06T03:12:01.490Z,5.9
2022-11-06T03:13:01.507Z,5.8
2022-11-06T03:14:00.912Z,5.8
2022-11-06T03:15:01.134Z,5.8
2022-11-06T03:16:00.965Z,5.9
2022-11-06T03:17:00.573Z,5.8
2022-11-06T03:18:01.293Z,5.8
2022-11-06T03:19:01.985Z,5.9
2022-11-06T03:20:01.734Z,5.8
2022-11-06T03:21:01.525Z,5.8
2022-11-06T03:22:02.166Z,5.8
2022-11-06T03:23:01.099Z,5.8
2022-11-06T03:24:01.533Z,5.8
2022-11-06T03:25:01.068Z,5.8
2022-11-06T03:26:01.175Z,5.8
2022-11-06T03:27:01.078Z,5.8
2022-11-06T03:28:01.276Z,5.8
2022-11-06T03:29:01.692Z,5.8
2022-11-06T03:30:01.316Z,5.8
2022-11-06T03:31:01.938Z,5.8
2022-11-06T03:32:01.138Z,5.8
2022-11-06T03:33:01.062Z,5.7
2022-11-06T03:34:01.118Z,5.7
2022-11-06T03:35:01.235Z,5.7
2022-11-06T03:36:01.071Z,5.7
2022-11-06T03:37:01.117Z,5.7
2022-11-06T03:38:01.447Z,5.7
2022-11-06T03:39:02.466Z,5.8
2022-11-06T03:40:01.082Z,5.8
2022-11-06T03:41:02.078Z,5.7
2022-11-06T03:42:01.071Z,5.7
2022-11-06T03:43:01.108Z,5.7
2022-11-06T03:44:01.195Z,5.7
2022-11-06T03:45:01.129Z,5.7
2022-11-06T03:46:01.143Z,5.7
2022-11-06T03:47:01.098Z,5.6
2022-11-06T03:48:01.415Z,5.6
2022-11-06T03:49:01.140Z,5.6
2022-11-06T03:50:01.265Z,5.6
2022-11-06T03:51:01.790Z,5.6
2022-11-06T03:52:01.734Z,5.7
2022-11-06T03:53:01.306Z,5.6
2022-11-06T03:54:01.148Z,5.7
2022-11-06T03:55:01.364Z,5.7
2022-11-06T03:56:01.094Z,5.7
2022-11-06T03:57:01.092Z,5.7
2022-11-06T03:58:01.554Z,5.7
2022-11-06T03:59:01.145Z,5.8
2022-11-06T04:00:01.331Z,5.8
2022-11-06T04:01:01.467Z,5.8
2022-11-06T04:02:01.312Z,5.8
2022-11-06T04:03:01.093Z,5.8
2022-11-06T04:04:01.110Z,5.8
2022-11-06T04:05:01.121Z,5.8
2022-11-06T04:06:01.130Z,5.8
2022-11-06T04:07:01.131Z,5.8
2022-11-06T04:08:01.532Z,5.7
2022-11-06T04:09:01.161Z,5.8
2022-11-06T04:10:01.180Z,5.8
2022-11-06T04:11:00.850Z,5.8
2022-11-06T04:12:00.454Z,5.8
2022-11-06T04:13:00.031Z,5.8
2022-11-06T04:13:59.764Z,5.8
2022-11-06T04:15:01.384Z,5.8
2022-11-06T04:16:01.403Z,5.8
2022-11-06T04:17:01.432Z,5.7
2022-11-06T04:18:02.223Z,5.7
2022-11-06T04:19:01.078Z,5.6
2022-11-06T04:20:04.088Z,5.6
2022-11-06T04:21:01.062Z,5.6
2022-11-06T04:22:01.151Z,5.6
2022-11-06T04:23:00.868Z,5.6
2022-11-06T04:24:00.534Z,5.6
2022-11-06T04:25:00.119Z,5.6
2022-11-06T04:25:59.709Z,5.5
2022-11-06T04:27:02.077Z,5.5
2022-11-06T04:28:01.846Z,5.5
2022-11-06T04:29:01.578Z,5.5
2022-11-06T04:30:01.071Z,5.5
2022-11-06T04:31:01.908Z,5.5
2022-11-06T04:32:01.588Z,5.4
2022-11-06T04:33:04.191Z,5.4
2022-11-06T04:34:00.873Z,5.4
2022-11-06T04:35:01.581Z,5.4
2022-11-06T04:36:01.106Z,5.4
2022-11-06T04:37:01.242Z,5.4
2022-11-06T04:38:07.818Z,5.4
2022-11-06T04:39:01.146Z,5.4
2022-11-06T04:40:01.140Z,5.4
2022-11-06T04:41:01.774Z,5.4
2022-11-06T04:42:01.147Z,5.5
2022-11-06T04:43:10.612Z,5.5
2022-11-06T04:44:01.876Z,5.4
2022-11-06T04:45:01.748Z,5.5
2022-11-06T04:46:01.850Z,5.5
2022-11-06T04:47:01.078Z,5.5
2022-11-06T04:48:13.900Z,5.5
2022-11-06T04:49:01.102Z,5.5
2022-11-06T04:50:01.109Z,5.5
2022-11-06T04:51:01.099Z,5.5
2022-11-06T04:52:01.120Z,5.5
2022-11-06T04:53:15.666Z,5.6
2022-11-06T04:54:02.086Z,5.6
2022-11-06T04:55:01.677Z,5.6
2022-11-06T04:56:01.102Z,5.6
2022-11-06T04:57:01.496Z,5.6
2022-11-06T04:58:01.176Z,5.6
2022-11-06T04:59:01.204Z,5.6
2022-11-06T05:00:01.804Z,5.6
2022-11-06T05:01:02.122Z,5.6
2022-11-06T05:02:01.982Z,5.6
2022-11-06T05:03:01.270Z,5.6
2022-11-06T05:04:01.090Z,5.5
2022-11-06T05:05:01.302Z,5.5
2022-11-06T05:06:02.022Z,5.5
2022-11-06T05:07:01.114Z,5.5
2022-11-06T05:08:01.327Z,5.5
2022-11-06T05:09:01.140Z,5.4
2022-11-06T05:10:01.120Z,5.4
2022-11-06T05:11:01.506Z,5.4
2022-11-06T05:12:01.508Z,5.3
2022-11-06T05:13:02.160Z,5.3
2022-11-06T05:14:01.157Z,5.3
2022-11-06T05:15:01.067Z,5.3
2022-11-06T05:16:01.087Z,5.3
2022-11-06T05:17:01.059Z,5.3
2022-11-06T05:18:01.077Z,5.3
2022-11-06T05:19:01.128Z,5.3
2022-11-06T05:20:01.469Z,5.3
2022-11-06T05:21:01.093Z,5.4
2022-11-06T05:22:01.041Z,5.4
2022-11-06T05:23:01.267Z,5.4
2022-11-06T05:24:01.124Z,5.4
2022-11-06T05:25:01.122Z,5.5
2022-11-06T05:26:01.116Z,5.5
2022-11-06T05:27:01.167Z,5.5
2022-11-06T05:28:01.130Z,5.5
2022-11-06T05:29:01.358Z,5.4
2022-11-06T05:30:01.349Z,5.4
2022-11-06T05:31:02.644Z,5.5
2022-11-06T05:32:01.220Z,5.5
2022-11-06T05:33:01.050Z,5.5
2022-11-06T05:34:01.080Z,5.4
2022-11-06T05:35:01.740Z,5.5
2022-11-06T05:36:01.082Z,5.5
2022-11-06T05:37:01.803Z,5.5
2022-11-06T05:38:01.759Z,5.5
2022-11-06T05:39:02.202Z,5.5
2022-11-06T05:40:01.551Z,5.5
2022-11-06T05:41:03.972Z,5.5
2022-11-06T05:42:01.165Z,5.5
2022-11-06T05:43:01.129Z,5.5
2022-11-06T05:44:01.148Z,5.5
2022-11-06T05:45:01.463Z,5.5
2022-11-06T05:46:01.248Z,5.5
2022-11-06T05:47:01.548Z,5.5
2022-11-06T05:48:01.888Z,5.5
2022-11-06T05:49:01.849Z,5.4
2022-11-06T05:50:01.080Z,5.4
2022-11-06T05:51:02.070Z,5.4
2022-11-06T05:52:02.606Z,5.3
2022-11-06T05:53:01.889Z,5.3
2022-11-06T05:54:03.262Z,5.3
2022-11-06T05:55:01.253Z,5.3
2022-11-06T05:56:01.256Z,5.2
2022-11-06T05:57:01.077Z,5.2
2022-11-06T05:58:01.147Z,5.1
2022-11-06T05:59:01.143Z,5.1
2022-11-06T06:00:01.376Z,5.1
2022-11-06T06:01:01.219Z,5.1
2022-11-06T06:02:01.317Z,5
2022-11-06T06:03:01.165Z,5
2022-11-06T06:04:01.216Z,5
2022-11-06T06:05:01.465Z,5
2022-11-06T06:06:00.662Z,5
2022-11-06T06:07:00.454Z,5
2022-11-06T06:08:00.050Z,5
2022-11-06T06:08:59.755Z,4.9
2022-11-06T06:10:01.807Z,4.9
2022-11-06T06:11:01.784Z,4.9
2022-11-06T06:12:01.799Z,4.9
2022-11-06T06:13:01.519Z,4.9
2022-11-06T06:14:01.818Z,4.9
2022-11-06T06:15:01.548Z,4.9
2022-11-06T06:16:01.561Z,4.9
2022-11-06T06:17:04.012Z,5
2022-11-06T06:18:01.175Z,4.9
2022-11-06T06:19:03.930Z,4.9
2022-11-06T06:20:01.127Z,4.9
2022-11-06T06:21:01.134Z,5
2022-11-06T06:22:01.961Z,5
2022-11-06T06:23:02.048Z,5
2022-11-06T06:24:05.367Z,5
2022-11-06T06:25:01.665Z,5
2022-11-06T06:26:01.166Z,5
2022-11-06T06:27:01.224Z,5
2022-11-06T06:28:01.122Z,5.1
2022-11-06T06:29:09.008Z,5.1
2022-11-06T06:30:00.518Z,5.1
2022-11-06T06:31:01.863Z,5.1
2022-11-06T06:32:01.468Z,5.1
2022-11-06T06:33:02.612Z,5.1
2022-11-06T06:34:11.722Z,5.1
2022-11-06T06:35:01.322Z,5.1
2022-11-06T06:36:01.157Z,5.1
2022-11-06T06:37:01.054Z,5.2
2022-11-06T06:38:01.085Z,5.2
2022-11-06T06:39:13.474Z,5.2
2022-11-06T06:40:01.263Z,5.2
2022-11-06T06:41:02.012Z,5.3
2022-11-06T06:42:02.173Z,5.3
2022-11-06T06:43:00.684Z,5.3
2022-11-06T06:44:14.251Z,5.3
2022-11-06T06:45:01.969Z,5.3
2022-11-06T06:46:01.018Z,5.3
2022-11-06T06:47:01.338Z,5.3
2022-11-06T06:48:01.440Z,5.3
2022-11-06T06:49:01.063Z,5.3
2022-11-06T06:50:01.140Z,5.3
2022-11-06T06:51:01.154Z,5.3
2022-11-06T06:52:01.181Z,5.4
2022-11-06T06:53:01.055Z,5.4
2022-11-06T06:54:01.078Z,5.4
2022-11-06T06:55:01.485Z,5.4
2022-11-06T06:56:01.075Z,5.4
2022-11-06T06:57:01.087Z,5.4
2022-11-06T06:58:01.092Z,5.4
2022-11-06T06:59:01.146Z,5.5
2022-11-06T07:00:01.100Z,5.5
2022-11-06T07:01:01.191Z,5.5
2022-11-06T07:02:01.228Z,5.5
2022-11-06T07:03:01.156Z,5.5
2022-11-06T07:04:04.389Z,5.5
2022-11-06T07:05:01.125Z,5.5
2022-11-06T07:06:01.410Z,5.5
2022-11-06T07:07:02.893Z,5.6
2022-11-06T07:08:02.597Z,5.6
2022-11-06T07:09:01.066Z,5.6
2022-11-06T07:10:01.066Z,5.6
2022-11-06T07:11:01.460Z,5.6
2022-11-06T07:12:01.651Z,5.6
2022-11-06T07:13:01.130Z,5.6
2022-11-06T07:14:02.334Z,5.6
2022-11-06T07:15:01.066Z,5.6
2022-11-06T07:16:01.106Z,5.7
2022-11-06T07:17:01.050Z,5.7
2022-11-06T07:18:01.114Z,5.8
2022-11-06T07:19:01.138Z,5.8
2022-11-06T07:20:01.372Z,5.8
2022-11-06T07:21:01.517Z,5.8
2022-11-06T07:22:01.138Z,5.8
2022-11-06T07:23:01.146Z,5.8
2022-11-06T07:24:01.226Z,5.9
2022-11-06T07:25:01.045Z,5.9
2022-11-06T07:26:00.742Z,6
2022-11-06T07:27:00.358Z,6
2022-11-06T07:28:02.694Z,6
2022-11-06T07:29:02.118Z,6
2022-11-06T07:30:02.284Z,6
2022-11-06T07:31:04.043Z,6.1
2022-11-06T07:32:01.149Z,6.1
2022-11-06T07:33:01.098Z,6.1
2022-11-06T07:34:01.117Z,6.1
2022-11-06T07:35:01.131Z,6.1
2022-11-06T07:36:01.150Z,6.2
2022-11-06T07:37:06.532Z,6.2
2022-11-06T07:38:01.526Z,6.3
2022-11-06T07:39:01.557Z,6.3
2022-11-06T07:40:01.243Z,6.3
2022-11-06T07:41:01.155Z,6.3
2022-11-06T07:42:01.090Z,6.3
2022-11-06T07:43:01.065Z,6.4
2022-11-06T07:44:01.081Z,6.4
2022-11-06T07:45:00.683Z,6.4
2022-11-06T07:46:00.368Z,6.5
2022-11-06T07:47:00.393Z,6.5
2022-11-06T07:48:00.233Z,6.5
2022-11-06T07:48:59.964Z,6.6
2022-11-06T07:49:59.558Z,6.6
2022-11-06T07:51:01.824Z,6.6
2022-11-06T07:52:01.426Z,6.6
2022-11-06T07:53:01.173Z,6.6
2022-11-06T07:54:01.149Z,6.7
2022-11-06T07:55:01.168Z,6.7
2022-11-06T07:56:01.176Z,6.7
2022-11-06T07:57:01.421Z,6.7
2022-11-06T07:58:02.108Z,6.8
2022-11-06T07:59:01.111Z,6.8
2022-11-06T08:00:01.077Z,6.8
2022-11-06T08:01:02.532Z,6.8
2022-11-06T08:02:01.221Z,6.9
2022-11-06T08:03:02.041Z,6.9
2022-11-06T08:04:01.131Z,6.9
2022-11-06T08:05:00.836Z,7
2022-11-06T08:06:00.475Z,7
2022-11-06T08:07:00.718Z,7
2022-11-06T08:08:00.317Z,7
2022-11-06T08:08:59.977Z,7
2022-11-06T08:10:04.535Z,7
2022-11-06T08:11:01.290Z,7
2022-11-06T08:12:01.152Z,7.1
2022-11-06T08:13:01.410Z,7.1
2022-11-06T08:14:01.831Z,7.1
2022-11-06T08:15:06.647Z,7.1
2022-11-06T08:16:01.611Z,7.1
2022-11-06T08:17:01.306Z,7.1
2022-11-06T08:18:02.472Z,7.2
2022-11-06T08:19:02.493Z,7.2
2022-11-06T08:20:09.662Z,7.3
2022-11-06T08:21:01.086Z,7.3
2022-11-06T08:22:03.978Z,7.3
2022-11-06T08:23:01.298Z,7.3
2022-11-06T08:24:01.134Z,7.3
2022-11-06T08:25:10.860Z,7.3
2022-11-06T08:26:02.002Z,7.3
2022-11-06T08:27:01.472Z,7.3
2022-11-06T08:28:01.555Z,7.4
2022-11-06T08:29:01.556Z,7.4
2022-11-06T08:30:12.687Z,7.5
2022-11-06T08:31:01.267Z,7.5
2022-11-06T08:32:01.084Z,7.5
2022-11-06T08:33:01.070Z,7.5
2022-11-06T08:34:01.091Z,7.5
2022-11-06T08:35:15.556Z,7.6
2022-11-06T08:36:01.527Z,7.6
2022-11-06T08:37:01.209Z,7.6
2022-11-06T08:38:01.131Z,7.6
2022-11-06T08:39:01.133Z,7.6
2022-11-06T08:40:01.122Z,7.7
2022-11-06T08:41:01.355Z,7.7
2022-11-06T08:42:01.247Z,7.8
2022-11-06T08:43:01.151Z,7.8
2022-11-06T08:44:01.163Z,7.8
2022-11-06T08:45:01.162Z,7.8
2022-11-06T08:46:00.965Z,7.8
2022-11-06T08:47:01.452Z,7.8
2022-11-06T08:48:01.279Z,7.8
2022-11-06T08:49:01.181Z,7.8
2022-11-06T08:50:01.126Z,7.8
2022-11-06T08:51:01.096Z,7.8
2022-11-06T08:52:01.090Z,7.9
2022-11-06T08:53:01.124Z,7.9
2022-11-06T08:54:01.284Z,7.9
2022-11-06T08:55:01.481Z,7.9
2022-11-06T08:56:01.115Z,7.9
2022-11-06T08:57:01.138Z,7.9
2022-11-06T08:58:01.131Z,7.9
2022-11-06T08:59:01.727Z,8
2022-11-06T09:00:01.491Z,8
2022-11-06T09:01:01.283Z,8
2022-11-06T09:02:01.207Z,8
2022-11-06T09:03:01.769Z,8
2022-11-06T09:04:01.487Z,8
2022-11-06T09:05:01.079Z,8
2022-11-06T09:06:00.767Z,8
2022-11-06T09:07:01.485Z,8.1
2022-11-06T09:08:01.170Z,8.1
2022-11-06T09:09:01.154Z,8.1
2022-11-06T09:10:01.203Z,8.2
2022-11-06T09:11:01.326Z,8.2
2022-11-06T09:12:01.770Z,8.3
2022-11-06T09:13:01.445Z,8.3
2022-11-06T09:14:01.340Z,8.3
2022-11-06T09:15:02.354Z,8.4
2022-11-06T09:16:01.960Z,8.4
2022-11-06T09:17:01.208Z,8.4
2022-11-06T09:18:01.057Z,8.4
2022-11-06T09:19:01.162Z,8.5
2022-11-06T09:20:01.082Z,8.5
2022-11-06T09:21:01.154Z,8.5
2022-11-06T09:22:01.424Z,8.5
2022-11-06T09:23:01.451Z,8.5
2022-11-06T09:24:01.885Z,8.5
2022-11-06T09:25:04.161Z,8.5
2022-11-06T09:26:00.596Z,8.6
2022-11-06T09:27:00.199Z,8.6
2022-11-06T09:28:00.090Z,8.6
2022-11-06T09:28:59.825Z,8.6
2022-11-06T09:29:59.485Z,8.6
2022-11-06T09:31:01.534Z,8.6
2022-11-06T09:32:04.572Z,8.6
2022-11-06T09:33:03.417Z,8.6
2022-11-06T09:34:01.581Z,8.7
2022-11-06T09:35:01.114Z,8.7
2022-11-06T09:36:02.095Z,8.7
2022-11-06T09:37:01.475Z,8.8
2022-11-06T09:38:01.141Z,8.8
2022-11-06T09:39:01.148Z,8.8
2022-11-06T09:40:06.048Z,8.8
2022-11-06T09:41:01.523Z,8.8
2022-11-06T09:42:02.173Z,8.8
2022-11-06T09:43:01.181Z,8.9
2022-11-06T09:44:05.941Z,8.9
2022-11-06T09:45:01.157Z,8.9
2022-11-06T09:46:01.452Z,9
2022-11-06T09:47:01.147Z,9
2022-11-06T09:48:01.152Z,9
2022-11-06T09:49:01.159Z,9
2022-11-06T09:50:01.178Z,9
2022-11-06T09:51:16.268Z,9
2022-11-06T09:52:01.185Z,9.1
2022-11-06T09:53:05.774Z,9.1
2022-11-06T09:54:01.116Z,9.1
2022-11-06T09:55:01.550Z,9.1
2022-11-06T09:56:01.203Z,9.1
2022-11-06T09:57:02.020Z,9.1
2022-11-06T09:58:01.133Z,9.2
2022-11-06T09:59:01.122Z,9.2
2022-11-06T10:00:01.631Z,9.3
2022-11-06T10:01:04.852Z,9.3
2022-11-06T10:02:02.886Z,9.3
2022-11-06T10:03:01.969Z,9.3
2022-11-06T10:04:01.067Z,9.3
2022-11-06T10:05:01.218Z,9.3
2022-11-06T10:06:07.497Z,9.4
2022-11-06T10:07:01.085Z,9.4
2022-11-06T10:08:01.812Z,9.4
2022-11-06T10:09:01.850Z,9.5
2022-11-06T10:10:01.044Z,9.4
2022-11-06T10:11:10.580Z,9.5
2022-11-06T10:12:01.218Z,9.5
2022-11-06T10:13:01.257Z,9.5
2022-11-06T10:14:01.115Z,9.5
2022-11-06T10:15:01.103Z,9.5
2022-11-06T10:16:14.285Z,9.5
2022-11-06T10:17:04.516Z,9.5
2022-11-06T10:18:01.829Z,9.6
2022-11-06T10:19:01.710Z,9.6
2022-11-06T10:20:01.317Z,9.6
2022-11-06T10:21:16.359Z,9.6
2022-11-06T10:22:02.095Z,9.6
2022-11-06T10:23:02.048Z,9.6
2022-11-06T10:24:01.812Z,9.6
2022-11-06T10:25:01.286Z,9.7
2022-11-06T10:26:00.979Z,9.7
2022-11-06T10:27:01.084Z,9.7
2022-11-06T10:28:01.104Z,9.8
2022-11-06T10:29:01.590Z,9.8
2022-11-06T10:30:01.641Z,9.8
2022-11-06T10:31:01.943Z,9.8
2022-11-06T10:32:01.114Z,9.8
2022-11-06T10:33:01.142Z,9.9
2022-11-06T10:34:01.134Z,9.9
2022-11-06T10:35:01.143Z,9.9
2022-11-06T10:36:01.143Z,9.9
2022-11-06T10:37:01.544Z,9.9
2022-11-06T10:38:01.164Z,9.9
2022-11-06T10:39:01.170Z,9.9
2022-11-06T10:40:03.937Z,10
2022-11-06T10:41:01.919Z,10
2022-11-06T10:42:03.304Z,10
2022-11-06T10:43:01.067Z,10
2022-11-06T10:44:01.086Z,10
2022-11-06T10:45:01.184Z,10.1
2022-11-06T10:46:00.889Z,10.1
2022-11-06T10:47:01.103Z,10.1
2022-11-06T10:48:01.144Z,10.1
2022-11-06T10:49:03.918Z,10.1
2022-11-06T10:50:04.923Z,10.2
2022-11-06T10:51:01.144Z,10.2
2022-11-06T10:52:01.146Z,10.2
2022-11-06T10:53:01.163Z,10.3
2022-11-06T10:54:01.321Z,10.3
2022-11-06T10:55:01.395Z,10.3
2022-11-06T10:56:05.468Z,10.3
2022-11-06T10:57:01.076Z,10.3
2022-11-06T10:58:01.088Z,10.4
2022-11-06T10:59:01.096Z,10.5
2022-11-06T11:00:01.313Z,10.5
2022-11-06T11:01:01.965Z,10.5
2022-11-06T11:02:04.037Z,10.5
2022-11-06T11:03:02.029Z,10.5
2022-11-06T11:04:01.520Z,10.5
2022-11-06T11:05:01.197Z,10.5
2022-11-06T11:06:00.840Z,10.5
2022-11-06T11:07:01.126Z,10.5
2022-11-06T11:08:01.130Z,10.6
2022-11-06T11:09:01.130Z,10.6
2022-11-06T11:10:01.059Z,10.6
2022-11-06T11:11:05.323Z,10.6
2022-11-06T11:12:02.089Z,10.6
2022-11-06T11:13:05.476Z,10.6
2022-11-06T11:14:02.139Z,10.7
2022-11-06T11:15:01.424Z,10.7
2022-11-06T11:16:02.351Z,10.7
2022-11-06T11:17:01.176Z,10.7
2022-11-06T11:18:01.132Z,10.8
2022-11-06T11:19:01.482Z,10.8
2022-11-06T11:20:00.818Z,10.8
2022-11-06T11:21:00.521Z,10.8
2022-11-06T11:22:00.450Z,10.8
2022-11-06T11:23:00.173Z,10.8
2022-11-06T11:23:59.899Z,10.9
2022-11-06T11:24:59.588Z,10.9
2022-11-06T11:26:01.263Z,11
2022-11-06T11:27:01.364Z,11
2022-11-06T11:28:04.831Z,11
2022-11-06T11:29:02.501Z,11
2022-11-06T11:30:01.067Z,11
2022-11-06T11:31:01.087Z,11
2022-11-06T11:32:01.475Z,11
2022-11-06T11:33:01.094Z,11
2022-11-06T11:34:01.059Z,11
2022-11-06T11:35:01.114Z,11
2022-11-06T11:36:01.251Z,11
2022-11-06T11:37:01.053Z,11.1
2022-11-06T11:38:01.212Z,11.1
2022-11-06T11:39:01.618Z,11.1
2022-11-06T11:40:00.934Z,11.1
2022-11-06T11:41:00.836Z,11.1
2022-11-06T11:42:01.992Z,11.1
2022-11-06T11:43:01.667Z,11.1
2022-11-06T11:44:01.058Z,11.2
2022-11-06T11:45:01.101Z,11.2
2022-11-06T11:46:00.854Z,11.2
2022-11-06T11:47:09.055Z,11.2
2022-11-06T11:48:01.503Z,11.2
2022-11-06T11:49:02.530Z,11.2
2022-11-06T11:50:01.316Z,11.2
2022-11-06T11:51:08.115Z,11.3
2022-11-06T11:52:07.629Z,11.3
2022-11-06T11:53:05.645Z,11.3
2022-11-06T11:54:01.138Z,11.3
2022-11-06T11:55:01.135Z,11.3
2022-11-06T11:56:01.144Z,11.3
2022-11-06T11:57:09.861Z,11.3
2022-11-06T11:58:01.774Z,11.3
2022-11-06T11:59:01.060Z,11.3
2022-11-06T12:00:01.058Z,11.3
2022-11-06T12:01:01.455Z,11.3
2022-11-06T12:02:12.814Z,11.3
2022-11-06T12:03:01.768Z,11.3
2022-11-06T12:04:01.159Z,11.3
2022-11-06T12:05:01.784Z,11.3
2022-11-06T12:06:00.581Z,11.3
2022-11-06T12:07:14.836Z,11.3
2022-11-06T12:08:01.686Z,11.3
2022-11-06T12:09:01.281Z,11.3
2022-11-06T12:10:01.492Z,11.3
2022-11-06T12:11:02.187Z,11.3
2022-11-06T12:12:01.143Z,11.3
2022-11-06T12:13:01.140Z,11.3
2022-11-06T12:14:01.052Z,11.3
2022-11-06T12:15:01.146Z,11.4
2022-11-06T12:16:01.057Z,11.3
2022-11-06T12:17:01.051Z,11.3
2022-11-06T12:18:01.066Z,11.4
2022-11-06T12:19:01.070Z,11.4
2022-11-06T12:20:01.099Z,11.4
2022-11-06T12:21:01.044Z,11.5
2022-11-06T12:22:01.101Z,11.5
2022-11-06T12:23:01.118Z,11.5
2022-11-06T12:24:01.416Z,11.5
2022-11-06T12:25:01.493Z,11.5
2022-11-06T12:26:02.184Z,11.6
2022-11-06T12:27:01.765Z,11.6
2022-11-06T12:28:00.828Z,11.6
2022-11-06T12:29:04.854Z,11.6
2022-11-06T12:30:01.258Z,11.6
2022-11-06T12:31:02.595Z,11.6
2022-11-06T12:32:01.047Z,11.6
2022-11-06T12:33:01.434Z,11.7
2022-11-06T12:34:11.959Z,11.6
2022-11-06T12:35:02.485Z,11.6
2022-11-06T12:36:01.266Z,11.7
2022-11-06T12:37:01.104Z,11.7
2022-11-06T12:38:01.176Z,11.7
2022-11-06T12:39:01.120Z,11.8
2022-11-06T12:40:01.115Z,11.8
2022-11-06T12:41:01.099Z,11.8
2022-11-06T12:42:01.145Z,11.8
2022-11-06T12:43:01.273Z,11.8
2022-11-06T12:44:01.141Z,11.7
2022-11-06T12:45:01.059Z,11.8
2022-11-06T12:46:01.136Z,11.8
2022-11-06T12:47:01.166Z,11.7
2022-11-06T12:48:01.166Z,11.7
2022-11-06T12:49:01.156Z,11.7
2022-11-06T12:50:01.079Z,11.6
2022-11-06T12:51:01.067Z,11.6
2022-11-06T12:52:01.120Z,11.6
2022-11-06T12:53:06.127Z,11.6
2022-11-06T12:54:02.191Z,11.6
2022-11-06T12:55:01.111Z,11.6
2022-11-06T12:56:01.098Z,11.6
2022-11-06T12:57:01.101Z,11.6
2022-11-06T12:58:01.127Z,11.5
2022-11-06T12:59:01.129Z,11.5
2022-11-06T13:00:01.126Z,11.6
2022-11-06T13:01:02.043Z,11.6
2022-11-06T13:02:02.764Z,11.6
2022-11-06T13:03:02.236Z,11.7
2022-11-06T13:04:01.727Z,11.7
2022-11-06T13:05:01.093Z,11.7
2022-11-06T13:06:00.749Z,11.8
2022-11-06T13:07:00.356Z,11.8
2022-11-06T13:08:00.239Z,11.8
2022-11-06T13:08:59.832Z,11.8
2022-11-06T13:10:01.407Z,11.8
2022-11-06T13:11:01.422Z,11.9
2022-11-06T13:12:02.113Z,11.9
2022-11-06T13:13:03.029Z,11.9
2022-11-06T13:14:01.746Z,11.9
2022-11-06T13:15:03.895Z,11.8
2022-11-06T13:16:01.385Z,11.8
2022-11-06T13:17:02.043Z,11.8
2022-11-06T13:18:02.930Z,11.8
2022-11-06T13:19:01.063Z,11.8
2022-11-06T13:20:00.620Z,11.8
2022-11-06T13:21:00.372Z,11.8
2022-11-06T13:21:59.987Z,11.8
2022-11-06T13:22:59.624Z,11.8
2022-11-06T13:24:01.342Z,11.8
2022-11-06T13:25:01.091Z,11.8
2022-11-06T13:26:00.769Z,11.7
2022-11-06T13:27:00.321Z,11.7
2022-11-06T13:28:01.118Z,11.7
2022-11-06T13:29:01.434Z,11.6
2022-11-06T13:30:01.118Z,11.6
2022-11-06T13:31:03.876Z,11.6
2022-11-06T13:32:01.117Z,11.6
2022-11-06T13:33:04.176Z,11.6
2022-11-06T13:34:01.140Z,11.6
2022-11-06T13:35:01.135Z,11.6
2022-11-06T13:36:01.273Z,11.6
2022-11-06T13:37:01.376Z,11.6
2022-11-06T13:38:06.910Z,11.5
2022-11-06T13:39:02.271Z,11.5
2022-11-06T13:40:01.046Z,11.5
2022-11-06T13:41:03.711Z,11.5
2022-11-06T13:42:01.097Z,11.5
2022-11-06T13:43:09.105Z,11.5
2022-11-06T13:44:01.110Z,11.5
2022-11-06T13:45:01.115Z,11.5
2022-11-06T13:46:01.107Z,11.6
2022-11-06T13:47:01.222Z,11.6
2022-11-06T13:48:10.572Z,11.6